createdAt,value
2019-01-14T00:02:07.194Z,92.44
2019-01-14T00:12:07.223Z,92.43
2019-01-14T00:22:07.181Z,93.75
2019-01-14T00:32:07.187Z,93.10
2019-01-14T00:42:07.285Z,92.59
2019-01-14T00:52:07.251Z,92.51
2019-01-14T01:02:07.111Z,92.28
2019-01-14T01:12:07.185Z,92.43
2019-01-14T01:22:07.157Z,92.51
2019-01-14T01:32:07.124Z,92.24
2019-01-14T01:42:07.079Z,91.77
2019-01-14T01:52:07.147Z,91.94
2019-01-14T02:02:07.154Z,92.43
2019-01-14T02:12:07.343Z,92.35
2019-01-14T02:22:07.112Z,92.11
2019-01-14T02:32:07.157Z,92.63
2019-01-14T02:42:07.062Z,92.78
2019-01-14T02:52:07.170Z,93.12
2019-01-14T03:02:07.141Z,93.34
2019-01-14T03:12:07.140Z,92.83
2019-01-14T03:22:07.163Z,92.90
2019-01-14T03:32:07.087Z,92.76
2019-01-14T03:42:07.326Z,92.56
2019-01-14T03:52:07.151Z,92.52
2019-01-14T04:02:07.091Z,92.80
2019-01-14T04:12:07.057Z,92.12
2019-01-14T04:22:07.125Z,92.17
2019-01-14T04:32:07.065Z,92.51
2019-01-14T04:42:07.143Z,93.29
2019-01-14T04:52:07.194Z,94.47
2019-01-14T05:02:07.072Z,94.58
2019-01-14T05:12:07.163Z,94.42
2019-01-14T05:22:07.149Z,94.04
2019-01-14T05:32:07.033Z,94.00
2019-01-14T05:42:07.147Z,93.95
2019-01-14T05:52:07.131Z,93.42
2019-01-14T06:02:07.083Z,93.24
2019-01-14T06:12:07.061Z,93.23
2019-01-14T06:22:07.471Z,94.23
2019-01-14T06:32:07.056Z,95.97
2019-01-14T06:42:07.635Z,95.55
2019-01-14T06:52:07.174Z,97.37
2019-01-14T07:02:07.039Z,98.98
2019-01-14T07:12:09.878Z,99.67
2019-01-14T07:22:07.637Z,100.00
2019-01-14T07:32:15.059Z,100.00
2019-01-14T07:42:07.300Z,100.00
2019-01-14T07:52:08.813Z,100.00
2019-01-14T08:02:07.123Z,100.00
2019-01-14T08:12:07.335Z,100.00
2019-01-14T08:22:07.043Z,100.00
2019-01-14T08:32:06.954Z,99.97
2019-01-14T08:42:07.374Z,99.05
2019-01-14T08:52:07.258Z,98.77
2019-01-14T09:02:07.232Z,97.88
2019-01-14T09:12:07.157Z,97.15
2019-01-14T09:22:07.139Z,96.47
2019-01-14T09:32:07.171Z,96.21
2019-01-14T09:42:07.495Z,96.64
2019-01-14T09:52:07.097Z,96.31
2019-01-14T10:02:07.636Z,96.26
2019-01-14T10:12:07.060Z,97.33
2019-01-14T10:22:07.076Z,97.30
2019-01-14T10:32:07.044Z,98.05
2019-01-14T10:42:07.138Z,98.03
2019-01-14T10:52:07.065Z,98.58
2019-01-14T11:02:07.026Z,95.64
2019-01-14T11:12:07.440Z,91.28
2019-01-14T11:22:06.979Z,90.57
2019-01-14T11:32:07.035Z,88.57
2019-01-14T11:42:07.258Z,85.30
2019-01-14T11:52:07.189Z,83.43
2019-01-14T12:02:07.040Z,82.88
2019-01-14T12:12:07.097Z,81.65
2019-01-14T12:22:07.059Z,80.59
2019-01-14T12:32:07.082Z,84.15
2019-01-14T12:42:07.844Z,87.32
2019-01-14T12:52:07.104Z,87.58
2019-01-14T13:02:07.001Z,88.83
2019-01-14T13:12:07.417Z,87.30
2019-01-14T13:22:07.090Z,85.19
2019-01-14T13:32:07.010Z,84.64
2019-01-14T13:42:07.390Z,86.17
2019-01-14T13:52:07.087Z,86.13
2019-01-14T14:02:07.106Z,87.10
2019-01-14T14:12:07.460Z,79.98
2019-01-14T14:22:11.700Z,74.80
2019-01-14T14:32:07.080Z,80.83
2019-01-14T14:42:07.588Z,87.61
2019-01-14T14:52:07.144Z,88.50
2019-01-14T15:02:07.095Z,88.97
2019-01-14T15:12:07.353Z,89.07
2019-01-14T15:22:07.066Z,89.44
2019-01-14T15:32:06.999Z,90.86
2019-01-14T15:42:07.476Z,92.51
2019-01-14T15:52:07.025Z,93.74
2019-01-14T16:02:06.986Z,93.87
2019-01-14T16:12:07.346Z,93.08
2019-01-14T16:22:07.158Z,92.22
2019-01-14T16:32:09.021Z,93.11
2019-01-14T16:42:07.060Z,93.87
2019-01-14T16:52:07.085Z,93.92
2019-01-14T17:02:07.068Z,94.01
2019-01-14T17:12:07.437Z,93.97
2019-01-14T17:22:06.915Z,94.37
2019-01-14T17:32:07.038Z,93.73
2019-01-14T17:42:07.034Z,93.63
2019-01-14T17:52:07.730Z,94.22
2019-01-14T18:02:07.092Z,95.26
2019-01-14T18:12:07.001Z,96.80
2019-01-14T18:22:07.384Z,97.22
2019-01-14T18:32:06.984Z,97.58
2019-01-14T18:42:08.119Z,98.41
2019-01-14T18:52:06.840Z,98.68
2019-01-14T19:02:08.089Z,97.68
2019-01-14T19:12:07.035Z,96.95
2019-01-14T19:22:06.955Z,96.86
2019-01-14T19:32:06.961Z,96.31
2019-01-14T19:42:06.925Z,96.28
2019-01-14T19:52:07.024Z,96.09
2019-01-14T20:02:07.130Z,96.14
2019-01-14T20:12:06.949Z,96.06
2019-01-14T20:22:06.971Z,96.15
2019-01-14T20:32:06.941Z,95.89
2019-01-14T20:42:07.419Z,95.31
2019-01-14T20:52:06.968Z,94.72
2019-01-14T21:02:06.998Z,94.85
2019-01-14T21:12:07.017Z,94.64
2019-01-14T21:22:06.919Z,94.31
2019-01-14T21:32:07.100Z,94.62
2019-01-14T21:42:07.133Z,95.39
2019-01-14T21:52:06.905Z,95.95
2019-01-14T22:02:06.932Z,96.70
2019-01-14T22:12:06.878Z,97.19
2019-01-14T22:22:06.903Z,97.27
2019-01-14T22:32:07.933Z,96.92
2019-01-14T22:42:07.454Z,96.85
2019-01-14T22:52:06.941Z,96.47
2019-01-14T23:02:06.911Z,95.88
2019-01-14T23:12:06.910Z,95.73
2019-01-14T23:22:08.001Z,95.51
2019-01-14T23:32:06.928Z,95.38
2019-01-14T23:42:06.910Z,95.36
2019-01-14T23:52:06.957Z,96.24
